Time;durP1;ratioP1;P1;durP2;ratioP2;P2;SDS_P1;SDS_P2;PMS_P1;PMS_P2;Temp;Humidity;BMP_temperature;BMP_pressure;BME280_temperature;BME280_humidity;BME280_pressure;Samples;Min_cycle;Max_cycle;Signal;HPM_P1;HPM_P2
2021/03/02 00:00:38;;;;;;;25.48;10.70;;;3.40;99.90;;;;;;5092129;28;20036;-56
2021/03/02 00:03:05;;;;;;;26.25;10.60;;;3.40;99.90;;;;;;5089305;28;20035;-56
2021/03/02 00:05:31;;;;;;;21.60;10.88;;;3.40;99.90;;;;;;5092535;28;20043;-58
2021/03/02 00:07:59;;;;;;;21.60;10.75;;;3.40;99.90;;;;;;5086880;28;20460;-59
2021/03/02 00:10:25;;;;;;;26.08;10.60;;;3.40;99.90;;;;;;5088903;28;20028;-57
2021/03/02 00:12:51;;;;;;;21.23;9.82;;;3.40;99.90;;;;;;5091579;28;20027;-58
2021/03/02 00:15:17;;;;;;;21.45;10.07;;;3.40;99.90;;;;;;5091806;28;20184;-58
2021/03/02 00:17:51;;;;;;;23.73;9.77;;;3.40;99.90;;;;;;5091202;28;20490;-55
2021/03/02 00:20:23;;;;;;;22.55;10.02;;;3.50;99.90;;;;;;5089848;28;20032;-58
2021/03/02 00:22:57;;;;;;;18.65;9.32;;;3.50;99.90;;;;;;5092290;28;20043;-58
2021/03/02 00:25:28;;;;;;;;;;;3.40;99.90;;;;;;5091952;28;20118;-56
2021/03/02 00:27:54;;;;;;;21.83;9.90;;;3.40;99.90;;;;;;5090088;28;19929;-56
2021/03/02 00:30:21;;;;;;;20.73;9.80;;;3.40;99.90;;;;;;5094068;28;20028;-60
2021/03/02 00:32:47;;;;;;;25.15;9.75;;;3.30;99.90;;;;;;5092928;28;20032;-59
2021/03/02 00:35:16;;;;;;;21.83;10.63;;;3.20;99.90;;;;;;5093902;28;20314;-58
2021/03/02 00:37:44;;;;;;;24.60;9.63;;;3.20;99.90;;;;;;5091339;28;20552;-58
2021/03/02 00:40:10;;;;;;;23.45;10.45;;;3.10;99.90;;;;;;5088325;28;20551;-60
2021/03/02 00:42:35;;;;;;;23.73;11.88;;;3.10;99.90;;;;;;5093350;28;20067;-59
2021/03/02 00:45:01;;;;;;;19.75;10.32;;;3.00;99.90;;;;;;5094001;28;20026;-56
2021/03/02 00:47:26;;;;;;;20.65;10.63;;;3.00;99.90;;;;;;5088630;28;20046;-56
2021/03/02 00:49:52;;;;;;;20.45;10.00;;;3.00;99.90;;;;;;5090575;28;20085;-58
2021/03/02 00:52:18;;;;;;;25.83;11.23;;;3.00;99.90;;;;;;5091482;28;20114;-56
2021/03/02 00:54:43;;;;;;;23.95;10.35;;;2.90;99.90;;;;;;5085613;28;20043;-58
2021/03/02 00:57:09;;;;;;;24.73;11.15;;;2.90;99.90;;;;;;5089005;28;20048;-56
2021/03/02 00:59:34;;;;;;;23.90;10.25;;;2.90;99.90;;;;;;5091202;28;20430;-56
2021/03/02 01:02:00;;;;;;;23.42;10.93;;;3.00;99.90;;;;;;5090822;28;20040;-56
2021/03/02 01:04:26;;;;;;;20.50;10.52;;;3.00;99.90;;;;;;5092078;28;20024;-56
2021/03/02 01:06:51;;;;;;;25.17;10.07;;;3.00;99.90;;;;;;5090387;28;20020;-59
2021/03/02 01:09:17;;;;;;;25.92;11.65;;;3.00;99.90;;;;;;5084995;28;20107;-57
2021/03/02 01:11:43;;;;;;;22.20;10.88;;;3.00;99.90;;;;;;5091551;28;20059;-57
2021/03/02 01:14:09;;;;;;;22.48;10.68;;;2.80;99.90;;;;;;5098797;22;20027;-84
2021/03/02 01:16:35;;;;;;;25.58;10.57;;;2.80;99.90;;;;;;5082889;28;20087;-86
2021/03/02 01:19:01;;;;;;;28.83;11.27;;;2.80;99.90;;;;;;5083104;28;20024;-85
2021/03/02 01:21:26;;;;;;;24.48;12.13;;;2.90;99.90;;;;;;5100497;28;20080;-84
2021/03/02 01:23:52;;;;;;;22.42;10.80;;;2.80;99.90;;;;;;5083577;28;20055;-84
2021/03/02 01:26:18;;;;;;;18.30;10.00;;;2.70;99.90;;;;;;5102565;28;20121;-86
2021/03/02 01:28:43;;;;;;;24.63;10.23;;;2.60;99.90;;;;;;5089656;28;20601;-83
2021/03/02 01:31:09;;;;;;;20.80;8.70;;;2.60;99.90;;;;;;5082768;28;20545;-84
2021/03/02 01:33:34;;;;;;;20.80;8.13;;;2.60;99.90;;;;;;5108104;28;20020;-86
2021/03/02 01:36:00;;;;;;;16.77;9.30;;;2.70;99.90;;;;;;5116684;28;20031;-85
2021/03/02 01:38:25;;;;;;;16.95;8.23;;;2.70;99.90;;;;;;5083351;28;20118;-84
2021/03/02 01:40:51;;;;;;;15.80;8.68;;;2.60;99.90;;;;;;5111541;28;20160;-86
2021/03/02 01:43:17;;;;;;;15.70;7.85;;;2.60;99.90;;;;;;5114345;28;20027;-85
2021/03/02 01:45:43;;;;;;;15.80;7.15;;;2.60;99.90;;;;;;5087044;28;20024;-86
2021/03/02 01:48:09;;;;;;;14.98;6.93;;;2.60;99.90;;;;;;5082295;28;20501;-86
2021/03/02 01:50:34;;;;;;;19.33;7.82;;;2.70;99.90;;;;;;5083220;28;20017;-83
2021/03/02 01:53:00;;;;;;;18.23;9.70;;;2.70;99.90;;;;;;5066550;28;20036;-84
2021/03/02 01:55:26;;;;;;;23.42;8.77;;;2.80;99.90;;;;;;5097229;28;20027;-86
2021/03/02 01:57:52;;;;;;;18.38;7.30;;;2.80;99.90;;;;;;5118882;28;20060;-86
2021/03/02 02:00:28;;;;;;;16.27;7.65;;;2.70;99.90;;;;;;5087650;28;20023;-86
2021/03/02 02:03:06;;;;;;;21.20;7.53;;;2.70;99.90;;;;;;5085847;28;20039;-86
2021/03/02 02:05:39;;;;;;;17.60;7.30;;;2.60;99.90;;;;;;5083142;28;20134;-86
2021/03/02 02:08:07;;;;;;;16.13;7.45;;;2.70;99.90;;;;;;5082026;28;20025;-85
2021/03/02 02:11:00;;;;;;;15.57;8.20;;;2.80;99.90;;;;;;5063641;28;20021;-86
2021/03/02 02:13:31;;;;;;;18.65;6.95;;;2.90;99.90;;;;;;5077368;28;20059;-86
2021/03/02 02:16:01;;;;;;;15.65;7.93;;;2.90;99.90;;;;;;5106723;28;20035;-85
2021/03/02 02:18:33;;;;;;;13.68;6.65;;;2.90;99.90;;;;;;5089717;28;20031;-85
2021/03/02 02:21:17;;;;;;;13.98;7.07;;;2.90;99.90;;;;;;5104257;28;20024;-86
2021/03/02 02:23:52;;;;;;;12.77;6.93;;;3.00;99.90;;;;;;5086178;28;20039;-85
2021/03/02 02:26:47;;;;;;;15.85;7.75;;;3.00;99.90;;;;;;5105995;28;20614;-86
2021/03/02 02:29:18;;;;;;;17.42;7.15;;;3.00;99.90;;;;;;5100928;28;20020;-85
2021/03/02 02:31:44;;;;;;;14.35;7.65;;;3.00;99.90;;;;;;5077983;28;20069;-83
2021/03/02 02:34:13;;;;;;;13.45;7.03;;;3.00;99.90;;;;;;5064829;28;20024;-86
2021/03/02 02:36:39;;;;;;;11.15;6.70;;;3.10;99.90;;;;;;5064947;28;20024;-86
2021/03/02 02:39:06;;;;;;;15.50;7.10;;;3.00;99.90;;;;;;5081665;28;20027;-86
2021/03/02 02:41:34;;;;;;;17.15;7.68;;;3.00;99.90;;;;;;5089805;28;20066;-86
2021/03/02 02:44:00;;;;;;;13.75;6.88;;;2.90;99.90;;;;;;5084979;28;20427;-86
2021/03/02 02:46:27;;;;;;;12.57;6.38;;;2.80;99.90;;;;;;5084546;28;20040;-85
2021/03/02 02:48:56;;;;;;;14.60;7.10;;;2.70;99.90;;;;;;5065506;28;20479;-85
2021/03/02 02:51:23;;;;;;;12.88;7.70;;;2.80;99.90;;;;;;5069427;28;20026;-83
2021/03/02 02:53:49;;;;;;;13.30;7.00;;;2.80;99.90;;;;;;5093624;28;20055;-84
2021/03/02 02:56:17;;;;;;;14.00;7.47;;;2.90;99.90;;;;;;5085602;28;20062;-84
2021/03/02 02:59:03;;;;;;;15.27;8.10;;;3.00;99.90;;;;;;5084937;28;20053;-84
2021/03/02 03:01:33;;;;;;;12.57;7.32;;;3.00;99.90;;;;;;5083988;28;20074;-84
2021/03/02 03:04:02;;;;;;;9.80;6.85;;;3.00;99.90;;;;;;5065930;28;20021;-83
2021/03/02 03:06:30;;;;;;;14.13;7.05;;;3.10;99.90;;;;;;5090169;28;20106;-84
2021/03/02 03:09:00;;;;;;;13.68;7.57;;;3.10;99.90;;;;;;5084733;28;20023;-86
2021/03/02 03:11:30;;;;;;;13.90;7.88;;;3.10;99.90;;;;;;5084329;28;20111;-85
2021/03/02 03:13:57;;;;;;;14.95;7.47;;;3.10;99.90;;;;;;5084271;28;20027;-84
2021/03/02 03:16:24;;;;;;;12.80;6.88;;;3.10;99.90;;;;;;5084293;28;20029;-84
2021/03/02 03:19:00;;;;;;;12.55;6.65;;;3.10;99.90;;;;;;5100864;28;20047;-86
2021/03/02 03:21:26;;;;;;;12.55;6.82;;;3.10;99.90;;;;;;5102434;28;20051;-82
2021/03/02 03:23:53;;;;;;;13.32;6.35;;;3.10;99.90;;;;;;5085440;28;20031;-86
2021/03/02 03:26:22;;;;;;;13.40;7.82;;;3.10;99.90;;;;;;5082274;28;20017;-86
2021/03/02 03:28:50;;;;;;;14.00;6.90;;;3.20;99.90;;;;;;5090808;28;20110;-85
2021/03/02 03:31:16;;;;;;;12.75;6.63;;;3.20;99.90;;;;;;5102431;28;20064;-84
2021/03/02 03:33:42;;;;;;;15.68;7.40;;;3.10;99.90;;;;;;5084311;28;20065;-85
2021/03/02 03:36:09;;;;;;;18.45;7.38;;;3.10;99.90;;;;;;5084173;28;20039;-86
2021/03/02 03:38:35;;;;;;;13.45;6.75;;;3.00;99.90;;;;;;5083752;28;20427;-86
2021/03/02 03:41:01;;;;;;;12.90;7.18;;;2.90;99.90;;;;;;5122130;28;20035;-86
2021/03/02 03:43:27;;;;;;;13.43;7.05;;;2.80;99.90;;;;;;5105223;28;20552;-86
2021/03/02 03:45:53;;;;;;;16.45;7.78;;;2.80;99.90;;;;;;5105486;28;20027;-85
2021/03/02 03:48:19;;;;;;;13.75;8.07;;;2.80;99.90;;;;;;5089298;28;20027;-84
2021/03/02 03:50:45;;;;;;;12.60;7.50;;;2.90;99.90;;;;;;5084317;28;20020;-83
2021/03/02 03:53:14;;;;;;;16.85;8.15;;;2.90;99.90;;;;;;5101962;28;20043;-84
2021/03/02 03:55:42;;;;;;;17.10;8.00;;;2.80;99.90;;;;;;5098351;28;20021;-85
2021/03/02 03:58:17;;;;;;;13.05;6.93;;;2.80;99.90;;;;;;5083396;28;20013;-86
2021/03/02 04:00:43;;;;;;;15.32;6.90;;;2.80;99.90;;;;;;5101833;28;20074;-86
2021/03/02 04:03:09;;;;;;;14.43;7.53;;;2.80;99.90;;;;;;5101571;28;20032;-86
2021/03/02 04:05:35;;;;;;;15.98;7.97;;;2.80;99.90;;;;;;5081260;28;20080;-86
2021/03/02 04:08:02;;;;;;;12.35;6.53;;;2.80;99.90;;;;;;5083695;28;20035;-86
2021/03/02 04:10:28;;;;;;;16.58;7.60;;;2.90;99.90;;;;;;5083926;28;20020;-86
2021/03/02 04:12:54;;;;;;;13.20;7.18;;;2.90;99.90;;;;;;5083188;28;20047;-86
2021/03/02 04:15:20;;;;;;;11.90;6.80;;;2.90;99.90;;;;;;5083051;28;20109;-86
2021/03/02 04:17:50;;;;;;;15.98;8.40;;;2.90;99.90;;;;;;5092430;28;20027;-87
2021/03/02 04:20:16;;;;;;;13.05;6.90;;;2.90;99.90;;;;;;5091121;28;20066;-85
2021/03/02 04:22:42;;;;;;;18.50;8.20;;;3.00;99.90;;;;;;5091554;28;20019;-81
2021/03/02 04:25:08;;;;;;;15.68;8.93;;;3.00;99.90;;;;;;5103408;28;20044;-86
2021/03/02 04:27:34;;;;;;;18.00;8.75;;;3.00;99.90;;;;;;5103209;28;20499;-86
2021/03/02 04:30:00;;;;;;;13.90;6.95;;;3.10;99.90;;;;;;5097790;28;20077;-85
2021/03/02 04:32:25;;;;;;;18.95;8.77;;;3.10;99.90;;;;;;5087551;28;20063;-83
2021/03/02 04:34:51;;;;;;;15.32;8.15;;;3.10;99.90;;;;;;5065504;28;20024;-86
2021/03/02 04:37:17;;;;;;;17.27;8.98;;;3.20;99.90;;;;;;5108394;28;20435;-86
2021/03/02 04:39:42;;;;;;;17.70;8.68;;;3.20;99.90;;;;;;5087334;28;20052;-85
2021/03/02 04:42:08;;;;;;;15.02;8.30;;;3.20;99.90;;;;;;5083307;28;20016;-86
2021/03/02 04:44:34;;;;;;;17.15;8.00;;;3.20;99.90;;;;;;5083560;28;20107;-86
2021/03/02 04:46:59;;;;;;;15.77;7.72;;;3.20;99.90;;;;;;5085795;28;20024;-85
2021/03/02 04:49:25;;;;;;;19.83;8.82;;;3.20;99.90;;;;;;5103300;28;20026;-82
2021/03/02 04:51:51;;;;;;;15.00;7.03;;;3.10;99.90;;;;;;5102931;28;20023;-85
2021/03/02 04:54:17;;;;;;;13.35;7.13;;;3.00;99.90;;;;;;5103539;28;20028;-84
2021/03/02 04:56:42;;;;;;;11.75;6.68;;;2.90;99.90;;;;;;5086240;28;20064;-86
2021/03/02 04:59:08;;;;;;;20.48;7.75;;;2.70;99.90;;;;;;5094951;28;20032;-86
2021/03/02 05:01:34;;;;;;;14.73;7.22;;;2.70;99.90;;;;;;5102981;28;20498;-86
2021/03/02 05:04:01;;;;;;;16.27;8.93;;;2.80;99.90;;;;;;5102740;28;20019;-84
2021/03/02 05:06:27;;;;;;;15.25;8.07;;;2.80;99.90;;;;;;5103275;28;20019;-86
2021/03/02 05:08:53;;;;;;;16.17;7.60;;;2.70;99.90;;;;;;5103883;28;20019;-83
2021/03/02 05:11:18;;;;;;;13.10;7.10;;;2.70;99.90;;;;;;5103404;28;20068;-83
2021/03/02 05:13:44;;;;;;;16.73;7.40;;;2.70;99.90;;;;;;5102633;28;20126;-83
2021/03/02 05:16:11;;;;;;;14.18;7.63;;;2.60;99.90;;;;;;5103579;28;20030;-86
2021/03/02 05:18:37;;;;;;;14.55;7.13;;;2.70;99.90;;;;;;5103902;28;20024;-84
2021/03/02 05:21:03;;;;;;;14.48;7.05;;;2.60;99.90;;;;;;5119091;28;20079;-86
2021/03/02 05:23:28;;;;;;;14.60;7.45;;;2.50;99.90;;;;;;5081974;28;20016;-86
2021/03/02 05:25:54;;;;;;;19.63;7.85;;;2.40;99.90;;;;;;5100718;28;20031;-86
2021/03/02 05:28:20;;;;;;;19.25;9.13;;;2.40;99.90;;;;;;5082554;28;20016;-85
2021/03/02 05:30:45;;;;;;;17.80;8.10;;;2.50;99.90;;;;;;5082661;28;20027;-86
2021/03/02 05:33:11;;;;;;;16.45;7.93;;;2.50;99.90;;;;;;5101801;28;20035;-86
2021/03/02 05:35:36;;;;;;;19.17;8.68;;;2.50;99.90;;;;;;5102751;28;20480;-86
2021/03/02 05:38:02;;;;;;;16.60;8.45;;;2.60;99.90;;;;;;5085763;28;20028;-84
2021/03/02 05:40:27;;;;;;;18.40;8.73;;;2.70;99.90;;;;;;5082088;28;20050;-82
2021/03/02 05:42:54;;;;;;;15.57;7.90;;;2.80;99.90;;;;;;5099085;28;20081;-86
2021/03/02 05:45:20;;;;;;;18.92;8.48;;;2.90;99.90;;;;;;5080843;28;20089;-85
2021/03/02 05:47:47;;;;;;;16.38;9.05;;;2.90;99.90;;;;;;5082633;28;20029;-85
2021/03/02 05:50:14;;;;;;;22.38;8.90;;;3.00;99.90;;;;;;5081885;28;20027;-84
2021/03/02 05:52:40;;;;;;;17.13;9.23;;;3.00;99.90;;;;;;5081474;28;20031;-84
2021/03/02 05:55:07;;;;;;;17.65;8.98;;;3.10;99.90;;;;;;5081907;28;20028;-86
2021/03/02 05:57:33;;;;;;;18.70;7.95;;;3.10;99.90;;;;;;5081989;28;20028;-86
2021/03/02 06:00:00;;;;;;;20.67;8.30;;;3.10;99.90;;;;;;5100418;28;20012;-83
2021/03/02 06:02:26;;;;;;;17.80;8.98;;;3.10;99.90;;;;;;5081714;28;20538;-84
2021/03/02 06:04:51;;;;;;;16.30;8.38;;;3.10;99.90;;;;;;5082283;28;20060;-86
2021/03/02 06:07:17;;;;;;;15.95;9.05;;;3.00;99.90;;;;;;5081078;28;20077;-88
2021/03/02 06:09:46;;;;;;;18.58;9.73;;;2.90;99.90;;;;;;5095660;28;20024;-83
2021/03/02 06:12:12;;;;;;;21.67;10.75;;;2.90;99.90;;;;;;5101472;28;20126;-89
2021/03/02 06:14:38;;;;;;;26.02;9.85;;;3.00;99.90;;;;;;5102348;28;20079;-88
2021/03/02 06:17:04;;;;;;;20.08;10.70;;;2.80;99.90;;;;;;5102517;28;20031;-87
2021/03/02 06:19:40;;;;;;;17.50;9.27;;;2.70;99.90;;;;;;5102727;28;20028;-84
2021/03/02 06:22:08;;;;;;;18.73;8.55;;;2.70;99.90;;;;;;5102915;28;20032;-89
2021/03/02 06:24:41;;;;;;;19.20;9.35;;;2.60;99.90;;;;;;5102993;28;20058;-86
2021/03/02 06:27:08;;;;;;;25.05;8.55;;;2.60;99.90;;;;;;5102587;28;20077;-87
2021/03/02 06:29:34;;;;;;;19.17;8.38;;;2.70;99.90;;;;;;5102707;28;20419;-86
2021/03/02 06:31:59;;;;;;;15.90;8.00;;;2.70;99.90;;;;;;5120213;28;20095;-84
2021/03/02 06:34:25;;;;;;;21.58;8.95;;;2.70;99.90;;;;;;5120821;28;20015;-86
2021/03/02 06:36:53;;;;;;;30.67;8.68;;;2.70;99.90;;;;;;5101590;28;20019;-84
2021/03/02 06:39:31;;;;;;;38.85;9.15;;;2.70;99.90;;;;;;5099580;28;20027;-85
2021/03/02 06:42:13;;;;;;;23.00;8.95;;;2.70;99.90;;;;;;5082317;28;20032;-83
2021/03/02 06:44:40;;;;;;;30.98;11.43;;;2.80;99.90;;;;;;5106961;28;20016;-83
2021/03/02 06:47:06;;;;;;;26.80;9.02;;;2.80;99.90;;;;;;5074561;28;20021;-86
2021/03/02 06:49:45;;;;;;;26.13;10.02;;;2.70;99.90;;;;;;5084266;28;20016;-85
2021/03/02 06:52:19;;;;;;;35.78;9.88;;;2.70;99.90;;;;;;5078604;28;20091;-82
2021/03/02 06:54:47;;;;;;;18.77;7.30;;;2.70;99.90;;;;;;5086817;28;20097;-80
2021/03/02 06:57:18;;;;;;;26.10;9.70;;;2.80;99.90;;;;;;5086232;28;20039;-84
2021/03/02 06:59:54;;;;;;;30.98;9.25;;;2.90;99.90;;;;;;5097111;28;20027;-83
2021/03/02 07:02:43;;;;;;;23.60;9.27;;;2.90;99.90;;;;;;5092270;28;20480;-84
2021/03/02 07:05:15;;;;;;;20.38;9.07;;;3.00;99.90;;;;;;5068513;28;20027;-84
2021/03/02 07:07:43;;;;;;;20.20;8.85;;;3.10;99.90;;;;;;5086482;28;20058;-84
2021/03/02 07:10:11;;;;;;;48.95;11.07;;;3.20;99.90;;;;;;5086470;28;20023;-81
2021/03/02 07:12:39;;;;;;;27.17;10.15;;;3.30;99.90;;;;;;5076148;28;20035;-83
2021/03/02 07:15:08;;;;;;;22.58;8.93;;;3.40;99.90;;;;;;5087796;28;20032;-84
2021/03/02 07:17:38;;;;;;;27.95;10.38;;;3.60;99.90;;;;;;5085155;28;20073;-84
2021/03/02 07:20:07;;;;;;;18.55;9.95;;;3.70;99.90;;;;;;5086723;28;20031;-85
2021/03/02 07:22:34;;;;;;;16.23;8.27;;;3.80;99.90;;;;;;5076992;28;20031;-85
2021/03/02 07:25:02;;;;;;;21.52;9.00;;;4.00;99.90;;;;;;5074597;28;20035;-82
2021/03/02 07:27:29;;;;;;;21.60;8.80;;;4.10;99.90;;;;;;5074224;28;20026;-84
2021/03/02 07:29:59;;;;;;;19.52;9.38;;;4.30;99.90;;;;;;5078138;28;20104;-82
2021/03/02 07:32:25;;;;;;;21.52;9.43;;;4.40;99.90;;;;;;5096059;28;20492;-82
2021/03/02 07:34:52;;;;;;;18.77;9.05;;;4.40;99.90;;;;;;5110888;28;20027;-85
2021/03/02 07:37:22;;;;;;;20.52;8.38;;;4.50;99.90;;;;;;5074003;28;20046;-85
2021/03/02 07:39:59;;;;;;;22.33;8.60;;;4.70;99.90;;;;;;5081241;28;20020;-84
2021/03/02 07:42:25;;;;;;;17.10;8.35;;;4.80;99.90;;;;;;5086786;28;20509;-82
2021/03/02 07:45:13;;;;;;;29.42;9.48;;;4.90;99.90;;;;;;5082434;28;20127;-83
2021/03/02 07:47:56;;;;;;;18.48;9.27;;;5.00;99.90;;;;;;5099354;28;20036;-85
2021/03/02 07:50:33;;;;;;;17.75;8.63;;;5.20;99.90;;;;;;5080874;28;20024;-82
2021/03/02 07:53:31;;;;;;;24.98;10.27;;;5.20;99.90;;;;;;5092621;28;20024;-81
2021/03/02 07:56:15;;;;;;;19.52;8.63;;;5.40;99.90;;;;;;5048907;28;20036;-81
2021/03/02 07:58:42;;;;;;;;;;;5.50;99.90;;;;;;5076105;28;20036;-78
2021/03/02 08:01:21;;;;;;;20.85;8.38;;;5.50;99.90;;;;;;5069501;28;20396;-78
2021/03/02 08:03:47;;;;;;;23.92;8.82;;;5.60;99.90;;;;;;5087625;28;20427;-83
2021/03/02 08:06:23;;;;;;;15.50;7.82;;;5.80;99.90;;;;;;5083101;28;20404;-83
2021/03/02 08:08:49;;;;;;;16.50;7.30;;;5.90;99.90;;;;;;5083832;28;20058;-82
2021/03/02 08:11:32;;;;;;;18.48;9.45;;;6.00;99.90;;;;;;5082269;28;20028;-78
2021/03/02 08:14:16;;;;;;;25.95;10.95;;;6.10;99.90;;;;;;5100229;28;20055;-82
2021/03/02 08:16:53;;;;;;;18.00;8.38;;;6.20;99.90;;;;;;5098717;28;20031;-82
2021/03/02 08:19:31;;;;;;;15.82;8.35;;;6.30;99.90;;;;;;5081279;28;20460;-80
2021/03/02 08:21:57;;;;;;;19.25;8.63;;;6.40;99.90;;;;;;5098684;28;20027;-77
2021/03/02 08:24:47;;;;;;;20.52;8.65;;;6.50;99.90;;;;;;5094533;28;20029;-85
2021/03/02 08:27:13;;;;;;;24.55;8.55;;;6.60;99.90;;;;;;5074862;28;20072;-79
2021/03/02 08:29:48;;;;;;;20.90;8.93;;;6.70;99.90;;;;;;5075458;28;20020;-79
2021/03/02 08:32:13;;;;;;;22.38;8.82;;;6.90;99.90;;;;;;5090111;28;20039;-80
2021/03/02 08:34:39;;;;;;;19.92;9.32;;;7.00;99.90;;;;;;5101133;28;20032;-81
2021/03/02 08:37:05;;;;;;;17.73;8.38;;;7.00;99.90;;;;;;5099546;28;20092;-83
2021/03/02 08:39:30;;;;;;;16.85;9.15;;;7.10;99.90;;;;;;5098489;28;20017;-79
2021/03/02 08:41:56;;;;;;;20.45;8.43;;;7.20;99.90;;;;;;5099561;28;20549;-81
2021/03/02 08:44:23;;;;;;;24.58;11.27;;;7.30;99.90;;;;;;5075901;28;21387;-79
2021/03/02 08:46:51;;;;;;;17.70;8.25;;;7.40;99.90;;;;;;5077687;28;20111;-81
2021/03/02 08:49:18;;;;;;;22.23;9.73;;;7.50;99.90;;;;;;5098573;28;20024;-80
2021/03/02 08:51:44;;;;;;;17.13;8.88;;;7.60;99.90;;;;;;5082162;28;20054;-81
2021/03/02 08:54:09;;;;;;;17.58;9.02;;;7.60;99.90;;;;;;5083177;28;20024;-80
2021/03/02 08:56:35;;;;;;;20.10;9.45;;;7.70;99.90;;;;;;5085596;28;20397;-78
2021/03/02 08:59:09;;;;;;;21.17;9.35;;;7.90;99.90;;;;;;5099168;28;20015;-80
2021/03/02 09:01:37;;;;;;;19.10;9.38;;;8.00;99.90;;;;;;5098230;28;20032;-78
2021/03/02 09:04:16;;;;;;;19.88;9.18;;;8.10;99.90;;;;;;5076718;28;20077;-79
2021/03/02 09:06:46;;;;;;;23.08;10.13;;;8.20;99.90;;;;;;5090638;28;20172;-81
2021/03/02 09:09:13;;;;;;;31.05;10.20;;;8.30;99.90;;;;;;5092801;28;20047;-80
2021/03/02 09:11:53;;;;;;;21.05;10.02;;;8.50;99.90;;;;;;5094401;28;20026;-81
2021/03/02 09:14:35;;;;;;;19.67;9.52;;;8.60;99.90;;;;;;5072187;28;20032;-82
2021/03/02 09:17:02;;;;;;;21.40;9.65;;;8.70;99.90;;;;;;5071790;28;20103;-85
2021/03/02 09:19:30;;;;;;;19.30;9.95;;;8.90;99.90;;;;;;5080595;28;20021;-86
2021/03/02 09:22:04;;;;;;;22.13;10.02;;;8.90;99.90;;;;;;5082815;28;20024;-83
2021/03/02 09:24:32;;;;;;;16.45;8.90;;;9.00;99.90;;;;;;5076025;28;20044;-83
2021/03/02 09:27:00;;;;;;;21.27;9.77;;;9.00;99.90;;;;;;5084813;28;20020;-83
2021/03/02 09:29:33;;;;;;;21.92;9.80;;;9.20;99.90;;;;;;5073243;28;20031;-83
2021/03/02 09:32:00;;;;;;;22.17;10.40;;;9.30;99.90;;;;;;5067925;28;20031;-84
2021/03/02 09:34:46;;;;;;;24.20;10.80;;;9.50;99.90;;;;;;5098524;28;20072;-85
2021/03/02 09:37:13;;;;;;;28.00;10.27;;;9.60;99.90;;;;;;5083679;28;20054;-83
2021/03/02 09:39:41;;;;;;;21.52;9.93;;;9.70;99.90;;;;;;5082645;28;20020;-86
2021/03/02 09:42:19;;;;;;;20.27;9.90;;;9.80;99.90;;;;;;5068751;28;20081;-85
2021/03/02 09:44:52;;;;;;;19.48;9.48;;;9.90;99.90;;;;;;5062094;28;20020;-85
2021/03/02 09:47:38;;;;;;;22.95;9.93;;;10.10;99.90;;;;;;5062074;28;20023;-87
2021/03/02 09:50:15;;;;;;;23.17;10.68;;;10.30;99.90;;;;;;5079724;28;20020;-85
2021/03/02 09:52:46;;;;;;;18.50;9.55;;;10.40;99.90;;;;;;5062628;28;20374;-85
2021/03/02 09:55:18;;;;;;;26.67;10.80;;;10.60;99.90;;;;;;5062680;28;20021;-86
2021/03/02 09:57:59;;;;;;;22.63;10.02;;;10.80;99.90;;;;;;5069627;28;20028;-81
2021/03/02 10:00:30;;;;;;;17.45;9.27;;;10.90;99.90;;;;;;5099922;28;20028;-83
2021/03/02 10:03:04;;;;;;;19.40;9.77;;;11.10;99.90;;;;;;5100645;28;20077;-83
2021/03/02 10:05:31;;;;;;;24.60;11.82;;;11.20;99.90;;;;;;5083854;28;20012;-83
2021/03/02 10:07:57;;;;;;;22.58;10.85;;;11.40;99.90;;;;;;5094257;28;20059;-84
2021/03/02 10:10:39;;;;;;;24.45;10.57;;;11.50;99.90;;;;;;5101735;28;20020;-84
2021/03/02 10:13:04;;;;;;;20.67;10.45;;;11.70;99.90;;;;;;5073808;28;20024;-85
2021/03/02 10:15:32;;;;;;;17.50;10.30;;;11.80;99.90;;;;;;5062612;28;20039;-84
2021/03/02 10:17:59;;;;;;;26.50;10.30;;;11.90;99.90;;;;;;5061967;28;20482;-84
2021/03/02 10:20:25;;;;;;;24.38;10.80;;;11.90;99.90;;;;;;5062147;28;20131;-82
2021/03/02 10:23:01;;;;;;;23.45;10.07;;;12.00;99.90;;;;;;5086721;28;20055;-85
2021/03/02 10:25:40;;;;;;;22.45;10.30;;;12.10;99.90;;;;;;5100549;28;20028;-83
2021/03/02 10:28:07;;;;;;;19.23;10.35;;;12.30;99.90;;;;;;5098008;28;20020;-83
2021/03/02 10:30:32;;;;;;;19.63;10.05;;;12.40;99.90;;;;;;5099995;28;20016;-84
2021/03/02 10:32:58;;;;;;;23.73;10.13;;;12.50;99.90;;;;;;5085946;28;20068;-82
2021/03/02 10:35:24;;;;;;;20.45;10.57;;;12.50;99.90;;;;;;5084149;28;20034;-81
2021/03/02 10:37:49;;;;;;;20.80;10.38;;;12.70;99.90;;;;;;5079048;28;20116;-84
2021/03/02 10:40:16;;;;;;;21.33;11.45;;;12.80;99.90;;;;;;5077449;28;20417;-85
2021/03/02 10:42:41;;;;;;;20.25;10.73;;;12.80;99.90;;;;;;5086165;28;20053;-86
2021/03/02 10:45:08;;;;;;;24.50;11.68;;;12.90;99.90;;;;;;5110111;28;20028;-85
2021/03/02 10:47:34;;;;;;;24.25;11.07;;;13.00;99.90;;;;;;5085915;28;20024;-83
2021/03/02 10:49:59;;;;;;;26.15;11.35;;;13.10;99.90;;;;;;5101132;28;20026;-82
2021/03/02 10:52:25;;;;;;;23.70;10.43;;;13.30;99.90;;;;;;5086755;28;20392;-83
2021/03/02 10:54:50;;;;;;;22.42;10.27;;;13.40;99.90;;;;;;5086945;28;20354;-84
2021/03/02 10:57:17;;;;;;;21.52;11.68;;;13.50;99.90;;;;;;5104591;28;20058;-85
2021/03/02 10:59:46;;;;;;;26.45;11.23;;;13.50;99.90;;;;;;5078031;28;20090;-85
2021/03/02 11:02:11;;;;;;;26.75;11.05;;;13.60;99.90;;;;;;5076559;28;20025;-83
2021/03/02 11:04:37;;;;;;;21.83;11.43;;;13.80;99.90;;;;;;5075357;28;20058;-86
2021/03/02 11:07:02;;;;;;;22.42;11.65;;;13.90;99.90;;;;;;5080844;28;20075;-83
2021/03/02 11:09:28;;;;;;;27.38;10.98;;;14.00;99.90;;;;;;5080755;28;20035;-84
2021/03/02 11:11:53;;;;;;;18.77;9.85;;;14.00;99.90;;;;;;5083438;28;20023;-85
2021/03/02 11:14:19;;;;;;;19.73;10.55;;;14.20;99.90;;;;;;5098518;28;20035;-84
2021/03/02 11:16:44;;;;;;;21.50;10.70;;;14.30;99.90;;;;;;5073490;28;20031;-84
2021/03/02 11:19:10;;;;;;;24.15;11.35;;;14.50;99.90;;;;;;5078456;28;20016;-85
2021/03/02 11:21:36;;;;;;;26.52;11.02;;;14.60;99.90;;;;;;5084354;28;20023;-83
2021/03/02 11:24:01;;;;;;;22.67;10.07;;;14.70;99.90;;;;;;5064901;28;20127;-84
2021/03/02 11:26:27;;;;;;;17.50;10.68;;;14.70;99.90;;;;;;5075429;28;20087;-82
2021/03/02 11:28:53;;;;;;;24.40;11.05;;;14.90;99.90;;;;;;5101391;28;20041;-85
2021/03/02 11:31:18;;;;;;;22.77;10.35;;;14.90;99.90;;;;;;5084034;28;20066;-86
2021/03/02 11:33:44;;;;;;;21.02;10.93;;;15.00;99.90;;;;;;5085309;28;20565;-86
2021/03/02 11:36:10;;;;;;;21.67;11.18;;;15.00;99.90;;;;;;5086012;28;20115;-86
2021/03/02 11:38:35;;;;;;;25.75;10.70;;;15.00;99.90;;;;;;5104279;28;20042;-85
2021/03/02 11:41:03;;;;;;;21.63;10.02;;;15.10;99.90;;;;;;5085033;28;20091;-83
2021/03/02 11:43:29;;;;;;;15.82;9.45;;;15.10;99.90;;;;;;5084275;28;20035;-84
2021/03/02 11:45:55;;;;;;;17.25;9.73;;;15.30;99.90;;;;;;5085388;28;20028;-85
2021/03/02 11:48:21;;;;;;;18.92;10.10;;;15.50;99.90;;;;;;5085355;28;20016;-84
2021/03/02 11:50:46;;;;;;;21.05;10.50;;;15.60;99.90;;;;;;5082589;28;20027;-85
2021/03/02 11:53:12;;;;;;;18.92;9.77;;;15.80;99.90;;;;;;5065559;28;20026;-82
2021/03/02 11:55:37;;;;;;;20.42;10.20;;;16.00;99.90;;;;;;5077172;28;20060;-83
2021/03/02 11:58:03;;;;;;;23.05;10.68;;;16.20;99.90;;;;;;5072278;28;20077;-84
2021/03/02 12:00:29;;;;;;;22.65;10.75;;;16.30;99.90;;;;;;5081971;28;20512;-84
2021/03/02 12:02:54;;;;;;;22.20;11.23;;;16.30;99.90;;;;;;5077519;28;20067;-83
2021/03/02 12:05:21;;;;;;;19.77;10.80;;;16.50;99.90;;;;;;5067013;28;20020;-84
2021/03/02 12:07:47;;;;;;;21.02;11.38;;;16.40;99.90;;;;;;5074975;28;20027;-82
2021/03/02 12:10:14;;;;;;;19.08;10.45;;;16.50;99.90;;;;;;5083600;28;20050;-83
2021/03/02 12:12:41;;;;;;;19.42;10.40;;;16.70;99.90;;;;;;5077950;28;20404;-85
2021/03/02 12:15:08;;;;;;;20.70;10.27;;;16.80;99.90;;;;;;5099249;28;20050;-84
2021/03/02 12:17:37;;;;;;;20.17;10.60;;;16.80;99.90;;;;;;5079725;28;20462;-85
2021/03/02 12:20:04;;;;;;;24.27;11.77;;;16.90;99.90;;;;;;5063135;28;20035;-83
2021/03/02 12:22:30;;;;;;;20.55;10.48;;;17.00;99.90;;;;;;5081336;28;20020;-83
2021/03/02 12:24:56;;;;;;;22.42;10.27;;;17.00;99.90;;;;;;5067060;28;20035;-84
2021/03/02 12:27:21;;;;;;;20.45;10.35;;;17.10;99.90;;;;;;5090123;28;20489;-85
2021/03/02 12:29:47;;;;;;;25.38;11.15;;;17.30;99.90;;;;;;5079624;28;20074;-84
2021/03/02 12:32:12;;;;;;;20.08;11.23;;;17.30;99.90;;;;;;5095244;28;20032;-84
2021/03/02 12:34:38;;;;;;;24.60;10.48;;;17.50;99.90;;;;;;5084706;28;20024;-81
2021/03/02 12:37:04;;;;;;;19.60;10.35;;;17.70;99.90;;;;;;5085499;28;20027;-84
2021/03/02 12:39:30;;;;;;;26.73;12.35;;;17.70;99.90;;;;;;5105107;28;20508;-83
2021/03/02 12:41:56;;;;;;;24.77;10.35;;;17.60;99.90;;;;;;5092304;28;20032;-84
2021/03/02 12:44:22;;;;;;;22.05;10.10;;;17.70;99.90;;;;;;5106068;28;20022;-83
2021/03/02 12:46:47;;;;;;;22.23;10.20;;;17.90;99.90;;;;;;5071624;28;20412;-84